sensor_id;sensor_type;location;lat;lon;timestamp;temperature;humidity
35613;DHT22;22054;51.646;7.078;2023-04-24T00:00:28;11.40;99.90
35613;DHT22;22054;51.646;7.078;2023-04-24T00:02:55;11.40;99.90
35613;DHT22;22054;51.646;7.078;2023-04-24T00:05:23;11.40;99.90
35613;DHT22;22054;51.646;7.078;2023-04-24T00:07:49;11.40;99.90
35613;DHT22;22054;51.646;7.078;2023-04-24T00:10:18;11.40;99.90
35613;DHT22;22054;51.646;7.078;2023-04-24T00:12:44;11.50;99.90
35613;DHT22;22054;51.646;7.078;2023-04-24T00:15:10;11.40;99.90
35613;DHT22;22054;51.646;7.078;2023-04-24T00:17:36;11.40;99.90
35613;DHT22;22054;51.646;7.078;2023-04-24T00:20:03;11.40;99.90
35613;DHT22;22054;51.646;7.078;2023-04-24T00:22:30;11.40;99.90
35613;DHT22;22054;51.646;7.078;2023-04-24T00:24:56;11.40;99.90
35613;DHT22;22054;51.646;7.078;2023-04-24T00:27:22;11.40;99.90
35613;DHT22;22054;51.646;7.078;2023-04-24T00:29:48;11.50;99.90
35613;DHT22;22054;51.646;7.078;2023-04-24T00:32:14;11.50;99.90
35613;DHT22;22054;51.646;7.078;2023-04-24T00:34:41;11.50;99.90
35613;DHT22;22054;51.646;7.078;2023-04-24T00:37:07;11.60;99.90
35613;DHT22;22054;51.646;7.078;2023-04-24T00:39:33;11.50;99.90
35613;DHT22;22054;51.646;7.078;2023-04-24T00:41:59;11.50;99.90
35613;DHT22;22054;51.646;7.078;2023-04-24T00:44:25;11.50;99.90
35613;DHT22;22054;51.646;7.078;2023-04-24T00:46:50;11.70;99.90
35613;DHT22;22054;51.646;7.078;2023-04-24T00:49:18;11.50;99.90
35613;DHT22;22054;51.646;7.078;2023-04-24T00:51:44;11.50;99.90
35613;DHT22;22054;51.646;7.078;2023-04-24T00:54:11;11.50;99.90
35613;DHT22;22054;51.646;7.078;2023-04-24T00:56:37;11.50;99.90
35613;DHT22;22054;51.646;7.078;2023-04-24T00:59:03;11.50;99.90
35613;DHT22;22054;51.646;7.078;2023-04-24T01:01:30;11.50;99.90
35613;DHT22;22054;51.646;7.078;2023-04-24T01:03:57;11.80;99.90
35613;DHT22;22054;51.646;7.078;2023-04-24T01:06:23;11.60;99.90
35613;DHT22;22054;51.646;7.078;2023-04-24T01:08:53;11.60;99.90
35613;DHT22;22054;51.646;7.078;2023-04-24T01:11:24;11.50;99.90
35613;DHT22;22054;51.646;7.078;2023-04-24T01:13:50;11.40;99.90
35613;DHT22;22054;51.646;7.078;2023-04-24T01:16:16;11.30;99.90
35613;DHT22;22054;51.646;7.078;2023-04-24T01:18:43;11.30;99.90
35613;DHT22;22054;51.646;7.078;2023-04-24T01:21:13;11.20;99.90
35613;DHT22;22054;51.646;7.078;2023-04-24T01:23:45;11.40;99.90
35613;DHT22;22054;51.646;7.078;2023-04-24T01:26:12;11.30;99.90
35613;DHT22;22054;51.646;7.078;2023-04-24T01:28:39;11.40;99.90
35613;DHT22;22054;51.646;7.078;2023-04-24T01:31:05;11.20;99.90
35613;DHT22;22054;51.646;7.078;2023-04-24T01:33:31;11.30;99.90
35613;DHT22;22054;51.646;7.078;2023-04-24T01:35:57;11.20;99.90
35613;DHT22;22054;51.646;7.078;2023-04-24T01:38:23;11.10;99.90
35613;DHT22;22054;51.646;7.078;2023-04-24T01:40:49;11.00;99.90
35613;DHT22;22054;51.646;7.078;2023-04-24T01:43:16;10.90;99.90
35613;DHT22;22054;51.646;7.078;2023-04-24T01:45:43;10.80;99.90
35613;DHT22;22054;51.646;7.078;2023-04-24T01:48:09;10.80;99.90
35613;DHT22;22054;51.646;7.078;2023-04-24T01:50:35;10.70;99.90
35613;DHT22;22054;51.646;7.078;2023-04-24T01:53:00;10.70;99.90
35613;DHT22;22054;51.646;7.078;2023-04-24T01:55:27;10.70;99.90
35613;DHT22;22054;51.646;7.078;2023-04-24T01:57:55;10.70;99.90
35613;DHT22;22054;51.646;7.078;2023-04-24T02:00:21;10.60;99.90
35613;DHT22;22054;51.646;7.078;2023-04-24T02:02:47;10.90;99.90
35613;DHT22;22054;51.646;7.078;2023-04-24T02:05:13;10.60;99.90
35613;DHT22;22054;51.646;7.078;2023-04-24T02:07:39;10.60;99.90
35613;DHT22;22054;51.646;7.078;2023-04-24T02:10:05;10.60;99.90
35613;DHT22;22054;51.646;7.078;2023-04-24T02:12:32;10.60;99.90
35613;DHT22;22054;51.646;7.078;2023-04-24T02:14:58;10.60;99.90
35613;DHT22;22054;51.646;7.078;2023-04-24T02:17:23;10.50;99.90
35613;DHT22;22054;51.646;7.078;2023-04-24T02:19:50;10.50;99.90
35613;DHT22;22054;51.646;7.078;2023-04-24T02:22:15;10.70;99.90
35613;DHT22;22054;51.646;7.078;2023-04-24T02:24:41;10.50;99.90
35613;DHT22;22054;51.646;7.078;2023-04-24T02:27:07;10.50;99.90
35613;DHT22;22054;51.646;7.078;2023-04-24T02:29:32;10.50;99.90
35613;DHT22;22054;51.646;7.078;2023-04-24T02:31:58;10.70;99.90
35613;DHT22;22054;51.646;7.078;2023-04-24T02:34:24;10.50;99.90
35613;DHT22;22054;51.646;7.078;2023-04-24T02:36:50;10.50;99.90
35613;DHT22;22054;51.646;7.078;2023-04-24T02:39:16;10.40;99.90
35613;DHT22;22054;51.646;7.078;2023-04-24T02:41:42;10.50;99.90
35613;DHT22;22054;51.646;7.078;2023-04-24T02:44:08;10.40;99.90
35613;DHT22;22054;51.646;7.078;2023-04-24T02:46:34;10.40;99.90
35613;DHT22;22054;51.646;7.078;2023-04-24T02:49:00;10.40;99.90
35613;DHT22;22054;51.646;7.078;2023-04-24T02:51:25;10.40;99.90
35613;DHT22;22054;51.646;7.078;2023-04-24T02:53:52;10.40;99.90
35613;DHT22;22054;51.646;7.078;2023-04-24T02:56:18;10.40;99.90
35613;DHT22;22054;51.646;7.078;2023-04-24T02:58:43;10.50;99.90
35613;DHT22;22054;51.646;7.078;2023-04-24T03:01:09;10.40;99.90
35613;DHT22;22054;51.646;7.078;2023-04-24T03:03:37;10.40;99.90
35613;DHT22;22054;51.646;7.078;2023-04-24T03:06:03;10.30;99.90
35613;DHT22;22054;51.646;7.078;2023-04-24T03:08:31;10.40;99.90
35613;DHT22;22054;51.646;7.078;2023-04-24T03:10:57;10.30;99.90
35613;DHT22;22054;51.646;7.078;2023-04-24T03:13:23;10.30;99.90
35613;DHT22;22054;51.646;7.078;2023-04-24T03:15:48;10.40;99.90
35613;DHT22;22054;51.646;7.078;2023-04-24T03:18:14;10.30;99.90
35613;DHT22;22054;51.646;7.078;2023-04-24T03:20:40;10.40;99.90
35613;DHT22;22054;51.646;7.078;2023-04-24T03:23:06;10.30;99.90
35613;DHT22;22054;51.646;7.078;2023-04-24T03:25:32;10.40;99.90
35613;DHT22;22054;51.646;7.078;2023-04-24T03:27:57;10.30;99.90
35613;DHT22;22054;51.646;7.078;2023-04-24T03:30:23;10.30;99.90
35613;DHT22;22054;51.646;7.078;2023-04-24T03:32:49;10.30;99.90
35613;DHT22;22054;51.646;7.078;2023-04-24T03:35:15;10.30;99.90
35613;DHT22;22054;51.646;7.078;2023-04-24T03:37:40;10.30;99.90
35613;DHT22;22054;51.646;7.078;2023-04-24T03:40:07;10.30;99.90
35613;DHT22;22054;51.646;7.078;2023-04-24T03:42:33;10.30;99.90
35613;DHT22;22054;51.646;7.078;2023-04-24T03:44:59;10.30;99.90
35613;DHT22;22054;51.646;7.078;2023-04-24T03:47:25;10.30;99.90
35613;DHT22;22054;51.646;7.078;2023-04-24T03:49:50;10.30;99.90
35613;DHT22;22054;51.646;7.078;2023-04-24T03:52:17;10.40;99.90
35613;DHT22;22054;51.646;7.078;2023-04-24T03:54:42;10.30;99.90
35613;DHT22;22054;51.646;7.078;2023-04-24T03:57:08;10.30;99.90
35613;DHT22;22054;51.646;7.078;2023-04-24T03:59:34;10.30;99.90
35613;DHT22;22054;51.646;7.078;2023-04-24T04:02:00;10.30;99.90
35613;DHT22;22054;51.646;7.078;2023-04-24T04:04:26;10.30;99.90
35613;DHT22;22054;51.646;7.078;2023-04-24T04:06:51;10.30;99.90
35613;DHT22;22054;51.646;7.078;2023-04-24T04:09:17;10.40;99.90
35613;DHT22;22054;51.646;7.078;2023-04-24T04:11:43;10.30;99.90
35613;DHT22;22054;51.646;7.078;2023-04-24T04:14:09;10.20;99.90
35613;DHT22;22054;51.646;7.078;2023-04-24T04:16:34;10.30;99.90
35613;DHT22;22054;51.646;7.078;2023-04-24T04:19:02;10.20;99.90
35613;DHT22;22054;51.646;7.078;2023-04-24T04:21:28;10.20;99.90
35613;DHT22;22054;51.646;7.078;2023-04-24T04:23:54;10.30;99.90
35613;DHT22;22054;51.646;7.078;2023-04-24T04:26:20;10.30;99.90
35613;DHT22;22054;51.646;7.078;2023-04-24T04:28:46;10.30;99.90
35613;DHT22;22054;51.646;7.078;2023-04-24T04:31:13;10.30;99.90
35613;DHT22;22054;51.646;7.078;2023-04-24T04:33:38;10.40;99.90
35613;DHT22;22054;51.646;7.078;2023-04-24T04:36:05;10.30;99.90
35613;DHT22;22054;51.646;7.078;2023-04-24T04:38:30;10.30;99.90
35613;DHT22;22054;51.646;7.078;2023-04-24T04:40:56;10.30;99.90
35613;DHT22;22054;51.646;7.078;2023-04-24T04:43:24;10.40;99.90
35613;DHT22;22054;51.646;7.078;2023-04-24T04:45:51;10.30;99.90
35613;DHT22;22054;51.646;7.078;2023-04-24T04:48:18;10.30;99.90
35613;DHT22;22054;51.646;7.078;2023-04-24T04:50:44;10.30;99.90
35613;DHT22;22054;51.646;7.078;2023-04-24T04:53:11;10.40;99.90
35613;DHT22;22054;51.646;7.078;2023-04-24T04:55:37;10.30;99.90
35613;DHT22;22054;51.646;7.078;2023-04-24T04:58:03;10.30;99.90
35613;DHT22;22054;51.646;7.078;2023-04-24T05:00:29;10.30;99.90
35613;DHT22;22054;51.646;7.078;2023-04-24T05:03:00;10.30;99.90
35613;DHT22;22054;51.646;7.078;2023-04-24T05:05:26;10.30;99.90
35613;DHT22;22054;51.646;7.078;2023-04-24T05:07:52;10.30;99.90
35613;DHT22;22054;51.646;7.078;2023-04-24T05:10:18;10.30;99.90
35613;DHT22;22054;51.646;7.078;2023-04-24T05:12:44;10.30;99.90
35613;DHT22;22054;51.646;7.078;2023-04-24T05:15:10;10.30;99.90
35613;DHT22;22054;51.646;7.078;2023-04-24T05:17:36;10.30;99.90
35613;DHT22;22054;51.646;7.078;2023-04-24T05:20:03;10.30;99.90
35613;DHT22;22054;51.646;7.078;2023-04-24T05:22:32;10.40;99.90
35613;DHT22;22054;51.646;7.078;2023-04-24T05:24:58;10.40;99.90
35613;DHT22;22054;51.646;7.078;2023-04-24T05:27:24;10.40;99.90
35613;DHT22;22054;51.646;7.078;2023-04-24T05:29:50;10.30;99.90
35613;DHT22;22054;51.646;7.078;2023-04-24T05:32:16;10.30;99.90
35613;DHT22;22054;51.646;7.078;2023-04-24T05:34:42;10.30;99.90
35613;DHT22;22054;51.646;7.078;2023-04-24T05:37:08;10.30;99.90
35613;DHT22;22054;51.646;7.078;2023-04-24T05:39:35;10.30;99.90
35613;DHT22;22054;51.646;7.078;2023-04-24T05:42:02;10.30;99.90
35613;DHT22;22054;51.646;7.078;2023-04-24T05:44:30;10.40;99.90
35613;DHT22;22054;51.646;7.078;2023-04-24T05:46:56;10.40;99.90
35613;DHT22;22054;51.646;7.078;2023-04-24T05:49:22;10.30;99.90
35613;DHT22;22054;51.646;7.078;2023-04-24T05:51:48;10.30;99.90
35613;DHT22;22054;51.646;7.078;2023-04-24T05:54:13;10.20;99.90
35613;DHT22;22054;51.646;7.078;2023-04-24T05:56:40;10.00;99.90
35613;DHT22;22054;51.646;7.078;2023-04-24T05:59:06;10.00;99.90
35613;DHT22;22054;51.646;7.078;2023-04-24T06:01:32;9.90;99.90
35613;DHT22;22054;51.646;7.078;2023-04-24T06:03:58;9.90;99.90
35613;DHT22;22054;51.646;7.078;2023-04-24T06:06:24;9.90;99.90
35613;DHT22;22054;51.646;7.078;2023-04-24T06:08:51;9.70;99.90
35613;DHT22;22054;51.646;7.078;2023-04-24T06:11:17;9.70;99.90
35613;DHT22;22054;51.646;7.078;2023-04-24T06:13:42;9.70;99.90
35613;DHT22;22054;51.646;7.078;2023-04-24T06:16:08;9.70;99.90
35613;DHT22;22054;51.646;7.078;2023-04-24T06:18:34;9.70;99.90
35613;DHT22;22054;51.646;7.078;2023-04-24T06:21:00;9.70;99.90
35613;DHT22;22054;51.646;7.078;2023-04-24T06:23:26;9.70;99.90
35613;DHT22;22054;51.646;7.078;2023-04-24T06:25:52;9.70;99.90
35613;DHT22;22054;51.646;7.078;2023-04-24T06:28:18;9.80;99.90
35613;DHT22;22054;51.646;7.078;2023-04-24T06:30:44;9.90;99.90
35613;DHT22;22054;51.646;7.078;2023-04-24T06:33:09;10.00;99.90
35613;DHT22;22054;51.646;7.078;2023-04-24T06:35:36;10.00;99.90
35613;DHT22;22054;51.646;7.078;2023-04-24T06:38:03;9.90;99.90
35613;DHT22;22054;51.646;7.078;2023-04-24T06:40:29;10.00;99.90
35613;DHT22;22054;51.646;7.078;2023-04-24T06:42:55;9.90;99.90
35613;DHT22;22054;51.646;7.078;2023-04-24T06:45:23;9.70;99.90
35613;DHT22;22054;51.646;7.078;2023-04-24T06:47:48;9.60;99.90
35613;DHT22;22054;51.646;7.078;2023-04-24T06:50:14;9.50;99.90
35613;DHT22;22054;51.646;7.078;2023-04-24T06:52:40;9.50;99.90
35613;DHT22;22054;51.646;7.078;2023-04-24T06:55:06;9.50;99.90
35613;DHT22;22054;51.646;7.078;2023-04-24T06:57:33;9.40;99.90
35613;DHT22;22054;51.646;7.078;2023-04-24T06:59:58;9.40;99.90
35613;DHT22;22054;51.646;7.078;2023-04-24T07:02:24;9.40;99.90
35613;DHT22;22054;51.646;7.078;2023-04-24T07:04:50;9.60;99.90
35613;DHT22;22054;51.646;7.078;2023-04-24T07:07:16;9.70;99.90
35613;DHT22;22054;51.646;7.078;2023-04-24T07:09:42;9.80;99.90
35613;DHT22;22054;51.646;7.078;2023-04-24T07:12:08;9.80;99.90
35613;DHT22;22054;51.646;7.078;2023-04-24T07:14:36;9.80;99.90
35613;DHT22;22054;51.646;7.078;2023-04-24T07:17:03;9.70;99.90
35613;DHT22;22054;51.646;7.078;2023-04-24T07:19:30;9.70;99.90
35613;DHT22;22054;51.646;7.078;2023-04-24T07:21:55;9.60;99.90
35613;DHT22;22054;51.646;7.078;2023-04-24T07:24:24;9.50;99.90
35613;DHT22;22054;51.646;7.078;2023-04-24T07:26:51;9.50;99.90
35613;DHT22;22054;51.646;7.078;2023-04-24T07:29:18;9.50;99.90
35613;DHT22;22054;51.646;7.078;2023-04-24T07:31:44;9.50;99.90
35613;DHT22;22054;51.646;7.078;2023-04-24T07:34:10;9.50;99.90
35613;DHT22;22054;51.646;7.078;2023-04-24T07:36:36;9.70;99.90
35613;DHT22;22054;51.646;7.078;2023-04-24T07:39:06;9.60;99.90
35613;DHT22;22054;51.646;7.078;2023-04-24T07:41:33;9.80;99.90
35613;DHT22;22054;51.646;7.078;2023-04-24T07:43:59;9.50;99.90
35613;DHT22;22054;51.646;7.078;2023-04-24T07:46:25;9.60;99.90
35613;DHT22;22054;51.646;7.078;2023-04-24T07:48:51;9.60;99.90
35613;DHT22;22054;51.646;7.078;2023-04-24T07:51:17;9.60;99.90
35613;DHT22;22054;51.646;7.078;2023-04-24T07:53:43;9.60;99.90
35613;DHT22;22054;51.646;7.078;2023-04-24T07:56:09;9.40;99.90
35613;DHT22;22054;51.646;7.078;2023-04-24T07:58:35;9.40;99.90
35613;DHT22;22054;51.646;7.078;2023-04-24T08:01:01;9.40;99.90
35613;DHT22;22054;51.646;7.078;2023-04-24T08:03:27;9.50;99.90
35613;DHT22;22054;51.646;7.078;2023-04-24T08:05:52;9.70;99.90
35613;DHT22;22054;51.646;7.078;2023-04-24T08:08:21;9.80;99.90
35613;DHT22;22054;51.646;7.078;2023-04-24T08:10:48;9.80;99.90
35613;DHT22;22054;51.646;7.078;2023-04-24T08:13:14;9.70;99.90
35613;DHT22;22054;51.646;7.078;2023-04-24T08:15:40;9.60;99.90
35613;DHT22;22054;51.646;7.078;2023-04-24T08:18:07;9.50;99.90
35613;DHT22;22054;51.646;7.078;2023-04-24T08:20:34;9.50;99.90
35613;DHT22;22054;51.646;7.078;2023-04-24T08:23:00;9.50;99.90
35613;DHT22;22054;51.646;7.078;2023-04-24T08:25:26;9.50;99.90
35613;DHT22;22054;51.646;7.078;2023-04-24T08:27:52;9.50;99.90
35613;DHT22;22054;51.646;7.078;2023-04-24T08:30:18;9.40;99.90
35613;DHT22;22054;51.646;7.078;2023-04-24T08:32:44;9.50;99.90
35613;DHT22;22054;51.646;7.078;2023-04-24T08:35:10;9.50;99.90
35613;DHT22;22054;51.646;7.078;2023-04-24T08:37:36;9.50;99.90
35613;DHT22;22054;51.646;7.078;2023-04-24T08:40:15;9.40;99.90
35613;DHT22;22054;51.646;7.078;2023-04-24T08:42:42;9.40;99.90
35613;DHT22;22054;51.646;7.078;2023-04-24T08:45:10;9.20;99.90
35613;DHT22;22054;51.646;7.078;2023-04-24T08:47:39;9.10;99.90
35613;DHT22;22054;51.646;7.078;2023-04-24T08:50:06;9.00;99.90
35613;DHT22;22054;51.646;7.078;2023-04-24T08:52:33;9.00;99.90
35613;DHT22;22054;51.646;7.078;2023-04-24T08:55:03;9.00;99.90
35613;DHT22;22054;51.646;7.078;2023-04-24T08:57:29;9.10;99.90
35613;DHT22;22054;51.646;7.078;2023-04-24T08:59:57;9.10;99.90
35613;DHT22;22054;51.646;7.078;2023-04-24T09:02:24;9.00;99.90
35613;DHT22;22054;51.646;7.078;2023-04-24T09:04:51;9.10;99.90
35613;DHT22;22054;51.646;7.078;2023-04-24T09:07:18;9.20;99.90
35613;DHT22;22054;51.646;7.078;2023-04-24T09:09:45;9.30;99.90
35613;DHT22;22054;51.646;7.078;2023-04-24T09:12:11;9.50;99.90
35613;DHT22;22054;51.646;7.078;2023-04-24T09:14:38;9.40;99.90
35613;DHT22;22054;51.646;7.078;2023-04-24T09:17:08;9.50;99.90
35613;DHT22;22054;51.646;7.078;2023-04-24T09:19:33;9.50;99.90
35613;DHT22;22054;51.646;7.078;2023-04-24T09:21:59;9.60;99.90
35613;DHT22;22054;51.646;7.078;2023-04-24T09:24:25;9.60;99.90
35613;DHT22;22054;51.646;7.078;2023-04-24T09:26:58;9.60;99.90
35613;DHT22;22054;51.646;7.078;2023-04-24T09:29:24;9.60;99.90
35613;DHT22;22054;51.646;7.078;2023-04-24T09:31:50;9.60;99.90
35613;DHT22;22054;51.646;7.078;2023-04-24T09:34:22;9.60;99.90
35613;DHT22;22054;51.646;7.078;2023-04-24T09:36:49;9.50;99.90
35613;DHT22;22054;51.646;7.078;2023-04-24T09:39:16;9.60;99.90
35613;DHT22;22054;51.646;7.078;2023-04-24T09:41:53;9.40;99.90
35613;DHT22;22054;51.646;7.078;2023-04-24T09:44:24;9.40;99.90
35613;DHT22;22054;51.646;7.078;2023-04-24T09:46:55;9.10;99.90
35613;DHT22;22054;51.646;7.078;2023-04-24T09:49:27;9.00;99.90
35613;DHT22;22054;51.646;7.078;2023-04-24T09:52:08;9.00;99.90
35613;DHT22;22054;51.646;7.078;2023-04-24T09:54:36;9.00;99.90
35613;DHT22;22054;51.646;7.078;2023-04-24T09:57:02;8.90;99.90
35613;DHT22;22054;51.646;7.078;2023-04-24T09:59:28;8.90;99.90
35613;DHT22;22054;51.646;7.078;2023-04-24T10:01:55;8.90;99.90
35613;DHT22;22054;51.646;7.078;2023-04-24T10:04:23;9.00;99.90
35613;DHT22;22054;51.646;7.078;2023-04-24T10:06:52;8.90;99.90
35613;DHT22;22054;51.646;7.078;2023-04-24T10:09:25;8.90;99.90
35613;DHT22;22054;51.646;7.078;2023-04-24T10:11:53;8.90;99.90
35613;DHT22;22054;51.646;7.078;2023-04-24T10:14:22;8.90;99.90
35613;DHT22;22054;51.646;7.078;2023-04-24T10:16:49;8.90;99.90
35613;DHT22;22054;51.646;7.078;2023-04-24T10:19:16;8.70;99.90
35613;DHT22;22054;51.646;7.078;2023-04-24T10:21:45;8.80;99.90
35613;DHT22;22054;51.646;7.078;2023-04-24T10:24:19;8.70;99.90
35613;DHT22;22054;51.646;7.078;2023-04-24T10:26:48;8.70;99.90
35613;DHT22;22054;51.646;7.078;2023-04-24T10:29:16;8.90;99.90
35613;DHT22;22054;51.646;7.078;2023-04-24T10:31:43;9.10;99.90
35613;DHT22;22054;51.646;7.078;2023-04-24T10:34:12;9.20;99.90
35613;DHT22;22054;51.646;7.078;2023-04-24T10:36:44;9.30;99.90
35613;DHT22;22054;51.646;7.078;2023-04-24T10:39:14;9.20;99.90
35613;DHT22;22054;51.646;7.078;2023-04-24T10:41:41;9.20;99.90
35613;DHT22;22054;51.646;7.078;2023-04-24T10:44:08;9.20;99.90
35613;DHT22;22054;51.646;7.078;2023-04-24T10:46:35;9.10;99.90
35613;DHT22;22054;51.646;7.078;2023-04-24T10:49:06;9.10;99.90
35613;DHT22;22054;51.646;7.078;2023-04-24T10:51:53;9.00;99.90
35613;DHT22;22054;51.646;7.078;2023-04-24T10:54:23;9.00;99.90
35613;DHT22;22054;51.646;7.078;2023-04-24T10:56:53;9.00;99.90
35613;DHT22;22054;51.646;7.078;2023-04-24T10:59:51;8.90;99.90
35613;DHT22;22054;51.646;7.078;2023-04-24T11:02:36;8.80;99.90
35613;DHT22;22054;51.646;7.078;2023-04-24T11:05:04;8.70;99.90
35613;DHT22;22054;51.646;7.078;2023-04-24T11:10:45;8.80;99.90
35613;DHT22;22054;51.646;7.078;2023-04-24T11:13:21;8.90;99.90
35613;DHT22;22054;51.646;7.078;2023-04-24T11:16:20;8.90;99.90
35613;DHT22;22054;51.646;7.078;2023-04-24T11:18:51;8.90;99.90
35613;DHT22;22054;51.646;7.078;2023-04-24T11:21:20;8.90;99.90
35613;DHT22;22054;51.646;7.078;2023-04-24T11:23:47;8.80;99.90
35613;DHT22;22054;51.646;7.078;2023-04-24T11:26:18;8.80;99.90
35613;DHT22;22054;51.646;7.078;2023-04-24T11:28:49;8.90;99.90
35613;DHT22;22054;51.646;7.078;2023-04-24T11:31:35;9.10;99.90
35613;DHT22;22054;51.646;7.078;2023-04-24T11:34:13;9.30;99.90
35613;DHT22;22054;51.646;7.078;2023-04-24T11:36:40;9.60;99.90
35613;DHT22;22054;51.646;7.078;2023-04-24T11:39:08;9.90;99.90
35613;DHT22;22054;51.646;7.078;2023-04-24T11:41:35;10.00;99.90
35613;DHT22;22054;51.646;7.078;2023-04-24T11:44:01;10.40;99.90
35613;DHT22;22054;51.646;7.078;2023-04-24T11:46:30;10.40;99.90
35613;DHT22;22054;51.646;7.078;2023-04-24T11:48:57;10.50;99.90
35613;DHT22;22054;51.646;7.078;2023-04-24T11:51:24;10.70;99.90
35613;DHT22;22054;51.646;7.078;2023-04-24T11:53:51;10.90;99.90
35613;DHT22;22054;51.646;7.078;2023-04-24T11:56:24;11.00;99.90
35613;DHT22;22054;51.646;7.078;2023-04-24T11:58:53;11.20;99.90
35613;DHT22;22054;51.646;7.078;2023-04-24T12:01:20;11.40;99.90
35613;DHT22;22054;51.646;7.078;2023-04-24T12:03:50;11.10;99.90
35613;DHT22;22054;51.646;7.078;2023-04-24T12:06:20;11.30;99.90
35613;DHT22;22054;51.646;7.078;2023-04-24T12:08:47;12.00;99.90
35613;DHT22;22054;51.646;7.078;2023-04-24T12:11:16;13.00;99.90
35613;DHT22;22054;51.646;7.078;2023-04-24T12:13:43;12.80;99.90
35613;DHT22;22054;51.646;7.078;2023-04-24T12:16:10;12.30;99.90
35613;DHT22;22054;51.646;7.078;2023-04-24T12:18:44;11.90;99.90
35613;DHT22;22054;51.646;7.078;2023-04-24T12:21:18;11.60;99.90
35613;DHT22;22054;51.646;7.078;2023-04-24T12:23:47;11.20;99.90
35613;DHT22;22054;51.646;7.078;2023-04-24T12:26:20;11.10;99.90
35613;DHT22;22054;51.646;7.078;2023-04-24T12:28:49;11.00;99.90
35613;DHT22;22054;51.646;7.078;2023-04-24T12:31:21;10.90;99.90
35613;DHT22;22054;51.646;7.078;2023-04-24T12:33:46;10.70;99.90
35613;DHT22;22054;51.646;7.078;2023-04-24T12:36:12;10.50;99.90
35613;DHT22;22054;51.646;7.078;2023-04-24T12:38:38;10.60;99.90
35613;DHT22;22054;51.646;7.078;2023-04-24T12:41:12;10.80;99.90
35613;DHT22;22054;51.646;7.078;2023-04-24T12:43:38;11.00;99.90
35613;DHT22;22054;51.646;7.078;2023-04-24T12:46:16;10.90;99.90
35613;DHT22;22054;51.646;7.078;2023-04-24T12:48:42;10.70;99.90
35613;DHT22;22054;51.646;7.078;2023-04-24T12:51:07;10.60;99.90
35613;DHT22;22054;51.646;7.078;2023-04-24T12:53:33;10.80;99.90
35613;DHT22;22054;51.646;7.078;2023-04-24T12:55:59;10.80;99.90
35613;DHT22;22054;51.646;7.078;2023-04-24T12:58:25;10.70;99.90
35613;DHT22;22054;51.646;7.078;2023-04-24T13:00:51;10.70;99.90
35613;DHT22;22054;51.646;7.078;2023-04-24T13:03:17;10.40;99.90
35613;DHT22;22054;51.646;7.078;2023-04-24T13:05:43;10.40;99.90
35613;DHT22;22054;51.646;7.078;2023-04-24T13:08:09;10.40;99.90
35613;DHT22;22054;51.646;7.078;2023-04-24T13:10:35;10.40;99.90
35613;DHT22;22054;51.646;7.078;2023-04-24T13:13:01;10.50;99.90
35613;DHT22;22054;51.646;7.078;2023-04-24T13:15:28;10.60;99.90
35613;DHT22;22054;51.646;7.078;2023-04-24T13:17:54;10.40;99.90
35613;DHT22;22054;51.646;7.078;2023-04-24T13:20:20;10.30;99.90
35613;DHT22;22054;51.646;7.078;2023-04-24T13:22:46;10.20;99.90
35613;DHT22;22054;51.646;7.078;2023-04-24T13:25:12;10.20;99.90
35613;DHT22;22054;51.646;7.078;2023-04-24T13:27:38;10.20;99.90
35613;DHT22;22054;51.646;7.078;2023-04-24T13:30:05;10.10;99.90
35613;DHT22;22054;51.646;7.078;2023-04-24T13:32:32;10.00;99.90
35613;DHT22;22054;51.646;7.078;2023-04-24T13:35:00;10.10;99.90
35613;DHT22;22054;51.646;7.078;2023-04-24T13:37:25;10.20;99.90
35613;DHT22;22054;51.646;7.078;2023-04-24T13:39:51;10.40;99.90
35613;DHT22;22054;51.646;7.078;2023-04-24T13:42:17;10.80;99.90
35613;DHT22;22054;51.646;7.078;2023-04-24T13:44:44;11.10;99.90
35613;DHT22;22054;51.646;7.078;2023-04-24T13:47:09;11.60;99.90
35613;DHT22;22054;51.646;7.078;2023-04-24T13:49:35;11.70;99.90
35613;DHT22;22054;51.646;7.078;2023-04-24T13:52:02;12.10;99.90
35613;DHT22;22054;51.646;7.078;2023-04-24T13:54:28;12.10;99.90
35613;DHT22;22054;51.646;7.078;2023-04-24T13:56:57;12.20;99.90
35613;DHT22;22054;51.646;7.078;2023-04-24T13:59:23;12.10;99.90
35613;DHT22;22054;51.646;7.078;2023-04-24T14:01:49;11.70;99.90
35613;DHT22;22054;51.646;7.078;2023-04-24T14:04:15;11.40;99.90
35613;DHT22;22054;51.646;7.078;2023-04-24T14:06:41;11.20;99.90
35613;DHT22;22054;51.646;7.078;2023-04-24T14:09:06;11.10;99.90
35613;DHT22;22054;51.646;7.078;2023-04-24T14:11:34;11.20;99.90
35613;DHT22;22054;51.646;7.078;2023-04-24T14:14:00;11.20;99.90
35613;DHT22;22054;51.646;7.078;2023-04-24T14:16:26;11.30;99.90
35613;DHT22;22054;51.646;7.078;2023-04-24T14:18:52;11.50;99.90
35613;DHT22;22054;51.646;7.078;2023-04-24T14:21:17;11.50;99.90
35613;DHT22;22054;51.646;7.078;2023-04-24T14:23:43;11.20;99.90
35613;DHT22;22054;51.646;7.078;2023-04-24T14:26:09;10.80;99.90
35613;DHT22;22054;51.646;7.078;2023-04-24T14:28:35;10.60;99.90
35613;DHT22;22054;51.646;7.078;2023-04-24T14:31:01;10.30;99.90
35613;DHT22;22054;51.646;7.078;2023-04-24T14:33:26;9.90;99.90
35613;DHT22;22054;51.646;7.078;2023-04-24T14:35:52;9.80;99.90
35613;DHT22;22054;51.646;7.078;2023-04-24T14:38:18;9.70;99.90
35613;DHT22;22054;51.646;7.078;2023-04-24T14:40:43;9.60;99.90
35613;DHT22;22054;51.646;7.078;2023-04-24T14:43:09;9.60;99.90
35613;DHT22;22054;51.646;7.078;2023-04-24T14:45:36;10.00;99.90
35613;DHT22;22054;51.646;7.078;2023-04-24T14:48:03;10.10;99.90
35613;DHT22;22054;51.646;7.078;2023-04-24T14:50:30;11.20;99.90
35613;DHT22;22054;51.646;7.078;2023-04-24T14:55:41;12.40;99.90
35613;DHT22;22054;51.646;7.078;2023-04-24T14:58:06;14.00;99.90
35613;DHT22;22054;51.646;7.078;2023-04-24T15:00:33;14.60;99.90
35613;DHT22;22054;51.646;7.078;2023-04-24T15:03:00;14.30;99.90
35613;DHT22;22054;51.646;7.078;2023-04-24T15:05:26;13.60;99.90
35613;DHT22;22054;51.646;7.078;2023-04-24T15:07:52;12.90;99.90
35613;DHT22;22054;51.646;7.078;2023-04-24T15:10:18;12.50;99.90
35613;DHT22;22054;51.646;7.078;2023-04-24T15:12:44;12.40;99.90
35613;DHT22;22054;51.646;7.078;2023-04-24T15:15:10;12.50;99.90
35613;DHT22;22054;51.646;7.078;2023-04-24T15:17:36;12.80;99.90
35613;DHT22;22054;51.646;7.078;2023-04-24T15:20:02;13.60;99.90
35613;DHT22;22054;51.646;7.078;2023-04-24T15:22:30;14.60;99.90
35613;DHT22;22054;51.646;7.078;2023-04-24T15:24:55;14.40;99.90
35613;DHT22;22054;51.646;7.078;2023-04-24T15:27:21;14.10;99.90
35613;DHT22;22054;51.646;7.078;2023-04-24T15:29:47;13.30;99.90
35613;DHT22;22054;51.646;7.078;2023-04-24T15:32:12;12.40;99.90
35613;DHT22;22054;51.646;7.078;2023-04-24T15:34:38;11.70;99.90
35613;DHT22;22054;51.646;7.078;2023-04-24T15:37:04;11.50;99.90
35613;DHT22;22054;51.646;7.078;2023-04-24T15:39:30;11.20;99.90
35613;DHT22;22054;51.646;7.078;2023-04-24T15:41:55;10.90;99.90